sensor_id;sensor_type;location;lat;lon;timestamp;P1;durP1;ratioP1;P2;durP2;ratioP2
46365;SDS011;32073;49.166;8.076;2022-12-05T00:05:41;13.73;;;7.53;;
46365;SDS011;32073;49.166;8.076;2022-12-05T00:09:42;16.77;;;8.77;;
46365;SDS011;32073;49.166;8.076;2022-12-05T00:13:44;15.95;;;8.55;;
46365;SDS011;32073;49.166;8.076;2022-12-05T00:17:45;14.73;;;8.50;;
46365;SDS011;32073;49.166;8.076;2022-12-05T00:21:46;14.40;;;7.60;;
46365;SDS011;32073;49.166;8.076;2022-12-05T00:25:47;15.63;;;7.63;;
46365;SDS011;32073;49.166;8.076;2022-12-05T00:29:47;16.33;;;7.30;;
46365;SDS011;32073;49.166;8.076;2022-12-05T00:33:48;15.95;;;8.60;;
46365;SDS011;32073;49.166;8.076;2022-12-05T00:37:50;14.98;;;8.20;;
46365;SDS011;32073;49.166;8.076;2022-12-05T00:41:51;18.17;;;8.25;;
46365;SDS011;32073;49.166;8.076;2022-12-05T00:45:51;13.82;;;7.75;;
46365;SDS011;32073;49.166;8.076;2022-12-05T00:49:52;14.10;;;8.10;;
46365;SDS011;32073;49.166;8.076;2022-12-05T00:53:53;16.00;;;8.30;;
46365;SDS011;32073;49.166;8.076;2022-12-05T00:57:56;19.88;;;9.93;;
46365;SDS011;32073;49.166;8.076;2022-12-05T01:01:56;18.67;;;9.38;;
46365;SDS011;32073;49.166;8.076;2022-12-05T01:05:57;14.23;;;7.63;;
46365;SDS011;32073;49.166;8.076;2022-12-05T01:09:58;15.77;;;8.32;;
46365;SDS011;32073;49.166;8.076;2022-12-05T01:13:59;17.63;;;9.07;;
46365;SDS011;32073;49.166;8.076;2022-12-05T01:17:59;17.17;;;9.30;;
46365;SDS011;32073;49.166;8.076;2022-12-05T01:22:00;19.35;;;9.88;;
46365;SDS011;32073;49.166;8.076;2022-12-05T01:26:03;15.85;;;8.85;;
46365;SDS011;32073;49.166;8.076;2022-12-05T01:30:07;18.98;;;9.68;;
46365;SDS011;32073;49.166;8.076;2022-12-05T01:34:10;20.20;;;9.57;;
46365;SDS011;32073;49.166;8.076;2022-12-05T01:38:13;15.73;;;8.55;;
46365;SDS011;32073;49.166;8.076;2022-12-05T01:42:14;14.57;;;8.20;;
46365;SDS011;32073;49.166;8.076;2022-12-05T01:46:15;17.80;;;8.35;;
46365;SDS011;32073;49.166;8.076;2022-12-05T01:50:15;19.58;;;9.65;;
46365;SDS011;32073;49.166;8.076;2022-12-05T01:54:16;21.75;;;9.88;;
46365;SDS011;32073;49.166;8.076;2022-12-05T01:58:18;18.80;;;9.10;;
46365;SDS011;32073;49.166;8.076;2022-12-05T02:02:19;24.20;;;10.73;;
46365;SDS011;32073;49.166;8.076;2022-12-05T02:06:20;21.20;;;9.15;;
46365;SDS011;32073;49.166;8.076;2022-12-05T02:10:23;21.73;;;9.32;;
46365;SDS011;32073;49.166;8.076;2022-12-05T02:19:01;28.27;;;10.30;;
46365;SDS011;32073;49.166;8.076;2022-12-05T02:40:20;28.25;;;10.75;;
46365;SDS011;32073;49.166;8.076;2022-12-05T02:44:32;28.77;;;11.10;;
46365;SDS011;32073;49.166;8.076;2022-12-05T02:48:40;24.38;;;10.30;;
46365;SDS011;32073;49.166;8.076;2022-12-05T02:52:45;26.10;;;11.18;;
46365;SDS011;32073;49.166;8.076;2022-12-05T02:56:48;28.95;;;13.02;;
46365;SDS011;32073;49.166;8.076;2022-12-05T03:00:52;24.52;;;10.10;;
46365;SDS011;32073;49.166;8.076;2022-12-05T03:05:18;25.60;;;11.13;;
46365;SDS011;32073;49.166;8.076;2022-12-05T03:09:46;27.45;;;10.88;;
46365;SDS011;32073;49.166;8.076;2022-12-05T03:13:57;23.35;;;10.90;;
46365;SDS011;32073;49.166;8.076;2022-12-05T03:22:55;25.67;;;10.75;;
46365;SDS011;32073;49.166;8.076;2022-12-05T03:31:36;29.52;;;10.80;;
46365;SDS011;32073;49.166;8.076;2022-12-05T03:35:49;26.00;;;10.45;;
46365;SDS011;32073;49.166;8.076;2022-12-05T03:44:19;22.65;;;9.15;;
46365;SDS011;32073;49.166;8.076;2022-12-05T03:48:34;20.60;;;8.50;;
46365;SDS011;32073;49.166;8.076;2022-12-05T03:53:01;24.65;;;10.07;;
46365;SDS011;32073;49.166;8.076;2022-12-05T03:57:18;20.63;;;8.93;;
46365;SDS011;32073;49.166;8.076;2022-12-05T04:01:25;23.40;;;8.65;;
46365;SDS011;32073;49.166;8.076;2022-12-05T04:05:31;21.67;;;9.27;;
46365;SDS011;32073;49.166;8.076;2022-12-05T04:09:54;21.85;;;9.38;;
46365;SDS011;32073;49.166;8.076;2022-12-05T04:14:03;19.67;;;9.10;;
46365;SDS011;32073;49.166;8.076;2022-12-05T04:18:08;22.90;;;9.73;;
46365;SDS011;32073;49.166;8.076;2022-12-05T04:22:10;18.10;;;9.05;;
46365;SDS011;32073;49.166;8.076;2022-12-05T04:26:20;18.42;;;8.20;;
46365;SDS011;32073;49.166;8.076;2022-12-05T04:31:15;22.05;;;9.25;;
46365;SDS011;32073;49.166;8.076;2022-12-05T04:34:56;20.23;;;9.23;;
46365;SDS011;32073;49.166;8.076;2022-12-05T04:39:16;25.05;;;10.38;;
46365;SDS011;32073;49.166;8.076;2022-12-05T04:43:42;21.20;;;8.82;;
46365;SDS011;32073;49.166;8.076;2022-12-05T04:47:48;19.38;;;8.35;;
46365;SDS011;32073;49.166;8.076;2022-12-05T04:51:56;22.60;;;10.52;;
46365;SDS011;32073;49.166;8.076;2022-12-05T04:56:02;21.20;;;8.93;;
46365;SDS011;32073;49.166;8.076;2022-12-05T05:00:04;22.08;;;9.63;;
46365;SDS011;32073;49.166;8.076;2022-12-05T05:04:08;24.02;;;10.25;;
46365;SDS011;32073;49.166;8.076;2022-12-05T05:08:21;22.48;;;9.00;;
46365;SDS011;32073;49.166;8.076;2022-12-05T05:12:24;21.00;;;9.63;;
46365;SDS011;32073;49.166;8.076;2022-12-05T05:16:26;21.20;;;8.07;;
46365;SDS011;32073;49.166;8.076;2022-12-05T05:20:29;23.02;;;9.50;;
46365;SDS011;32073;49.166;8.076;2022-12-05T05:24:30;19.75;;;8.63;;
46365;SDS011;32073;49.166;8.076;2022-12-05T05:28:31;20.75;;;9.13;;
46365;SDS011;32073;49.166;8.076;2022-12-05T05:32:31;22.67;;;9.43;;
46365;SDS011;32073;49.166;8.076;2022-12-05T05:36:32;22.67;;;10.40;;
46365;SDS011;32073;49.166;8.076;2022-12-05T05:40:34;22.35;;;10.10;;
46365;SDS011;32073;49.166;8.076;2022-12-05T05:44:36;20.02;;;8.90;;
46365;SDS011;32073;49.166;8.076;2022-12-05T05:48:37;17.92;;;7.93;;
46365;SDS011;32073;49.166;8.076;2022-12-05T05:52:38;19.60;;;8.80;;
46365;SDS011;32073;49.166;8.076;2022-12-05T05:56:39;20.88;;;9.40;;
46365;SDS011;32073;49.166;8.076;2022-12-05T06:00:39;21.15;;;9.18;;
46365;SDS011;32073;49.166;8.076;2022-12-05T06:04:40;19.88;;;9.23;;
46365;SDS011;32073;49.166;8.076;2022-12-05T06:08:41;18.77;;;8.00;;
46365;SDS011;32073;49.166;8.076;2022-12-05T06:12:43;22.77;;;9.93;;
46365;SDS011;32073;49.166;8.076;2022-12-05T06:16:44;19.13;;;9.43;;
46365;SDS011;32073;49.166;8.076;2022-12-05T06:20:52;18.70;;;8.68;;
46365;SDS011;32073;49.166;8.076;2022-12-05T06:24:53;19.92;;;9.05;;
46365;SDS011;32073;49.166;8.076;2022-12-05T06:28:54;26.60;;;10.98;;
46365;SDS011;32073;49.166;8.076;2022-12-05T06:32:55;22.30;;;9.73;;
46365;SDS011;32073;49.166;8.076;2022-12-05T06:36:56;20.70;;;11.05;;
46365;SDS011;32073;49.166;8.076;2022-12-05T06:40:58;20.13;;;9.23;;
46365;SDS011;32073;49.166;8.076;2022-12-05T06:44:59;19.85;;;9.63;;
46365;SDS011;32073;49.166;8.076;2022-12-05T06:48:59;21.92;;;10.43;;
46365;SDS011;32073;49.166;8.076;2022-12-05T06:53:00;20.90;;;9.93;;
46365;SDS011;32073;49.166;8.076;2022-12-05T06:57:01;21.95;;;10.88;;
46365;SDS011;32073;49.166;8.076;2022-12-05T07:01:02;23.17;;;10.82;;
46365;SDS011;32073;49.166;8.076;2022-12-05T07:05:21;29.80;;;16.58;;
46365;SDS011;32073;49.166;8.076;2022-12-05T07:09:23;22.98;;;11.30;;
46365;SDS011;32073;49.166;8.076;2022-12-05T07:13:44;41.70;;;23.70;;
46365;SDS011;32073;49.166;8.076;2022-12-05T07:17:44;106.07;;;53.60;;
46365;SDS011;32073;49.166;8.076;2022-12-05T07:21:45;29.50;;;16.75;;
46365;SDS011;32073;49.166;8.076;2022-12-05T07:25:46;22.70;;;11.68;;
46365;SDS011;32073;49.166;8.076;2022-12-05T07:29:47;33.83;;;16.80;;
46365;SDS011;32073;49.166;8.076;2022-12-05T07:33:48;46.28;;;23.23;;
46365;SDS011;32073;49.166;8.076;2022-12-05T07:37:49;48.45;;;20.70;;
46365;SDS011;32073;49.166;8.076;2022-12-05T07:41:50;23.70;;;11.35;;
46365;SDS011;32073;49.166;8.076;2022-12-05T07:45:50;19.63;;;10.20;;
46365;SDS011;32073;49.166;8.076;2022-12-05T07:49:51;21.13;;;11.02;;
46365;SDS011;32073;49.166;8.076;2022-12-05T07:53:52;44.25;;;21.63;;
46365;SDS011;32073;49.166;8.076;2022-12-05T07:57:52;24.35;;;12.27;;
46365;SDS011;32073;49.166;8.076;2022-12-05T08:01:53;19.98;;;9.43;;
46365;SDS011;32073;49.166;8.076;2022-12-05T08:05:54;29.42;;;15.27;;
46365;SDS011;32073;49.166;8.076;2022-12-05T08:09:54;22.98;;;11.35;;
46365;SDS011;32073;49.166;8.076;2022-12-05T08:13:55;21.77;;;11.15;;
46365;SDS011;32073;49.166;8.076;2022-12-05T08:17:57;18.45;;;9.32;;
46365;SDS011;32073;49.166;8.076;2022-12-05T08:21:57;20.55;;;11.23;;
46365;SDS011;32073;49.166;8.076;2022-12-05T08:26:02;18.10;;;9.52;;
46365;SDS011;32073;49.166;8.076;2022-12-05T08:30:15;18.05;;;10.00;;
46365;SDS011;32073;49.166;8.076;2022-12-05T08:34:17;20.73;;;9.82;;
46365;SDS011;32073;49.166;8.076;2022-12-05T08:38:19;27.52;;;12.68;;
46365;SDS011;32073;49.166;8.076;2022-12-05T08:42:19;28.80;;;13.63;;
46365;SDS011;32073;49.166;8.076;2022-12-05T08:46:20;81.35;;;33.72;;
46365;SDS011;32073;49.166;8.076;2022-12-05T08:50:21;36.10;;;16.65;;
46365;SDS011;32073;49.166;8.076;2022-12-05T08:54:21;22.52;;;11.55;;
46365;SDS011;32073;49.166;8.076;2022-12-05T08:58:22;21.80;;;11.10;;
46365;SDS011;32073;49.166;8.076;2022-12-05T09:02:23;19.30;;;10.75;;
46365;SDS011;32073;49.166;8.076;2022-12-05T09:06:24;20.98;;;11.70;;
46365;SDS011;32073;49.166;8.076;2022-12-05T09:10:25;23.30;;;11.07;;
46365;SDS011;32073;49.166;8.076;2022-12-05T09:14:26;18.50;;;10.25;;
46365;SDS011;32073;49.166;8.076;2022-12-05T09:18:32;22.50;;;11.43;;
46365;SDS011;32073;49.166;8.076;2022-12-05T09:22:33;19.58;;;10.20;;
46365;SDS011;32073;49.166;8.076;2022-12-05T09:26:34;19.83;;;10.10;;
46365;SDS011;32073;49.166;8.076;2022-12-05T09:30:34;20.20;;;9.95;;
46365;SDS011;32073;49.166;8.076;2022-12-05T09:34:36;17.10;;;9.30;;
46365;SDS011;32073;49.166;8.076;2022-12-05T09:38:38;17.70;;;9.00;;
46365;SDS011;32073;49.166;8.076;2022-12-05T09:42:56;19.48;;;9.85;;
46365;SDS011;32073;49.166;8.076;2022-12-05T09:51:28;18.23;;;9.82;;
46365;SDS011;32073;49.166;8.076;2022-12-05T09:59:55;34.73;;;15.97;;
46365;SDS011;32073;49.166;8.076;2022-12-05T10:08:45;55.17;;;22.67;;
46365;SDS011;32073;49.166;8.076;2022-12-05T10:13:39;21.52;;;11.23;;
46365;SDS011;32073;49.166;8.076;2022-12-05T10:17:49;26.20;;;13.25;;
46365;SDS011;32073;49.166;8.076;2022-12-05T10:26:11;15.05;;;7.55;;
46365;SDS011;32073;49.166;8.076;2022-12-05T10:30:23;16.10;;;8.82;;
46365;SDS011;32073;49.166;8.076;2022-12-05T10:34:33;13.55;;;7.25;;
46365;SDS011;32073;49.166;8.076;2022-12-05T10:38:42;15.15;;;8.23;;
46365;SDS011;32073;49.166;8.076;2022-12-05T10:42:44;12.63;;;7.30;;
46365;SDS011;32073;49.166;8.076;2022-12-05T10:46:45;14.18;;;7.82;;
46365;SDS011;32073;49.166;8.076;2022-12-05T10:50:46;12.90;;;7.57;;
46365;SDS011;32073;49.166;8.076;2022-12-05T10:54:55;12.60;;;7.75;;
46365;SDS011;32073;49.166;8.076;2022-12-05T10:59:01;12.82;;;7.75;;
46365;SDS011;32073;49.166;8.076;2022-12-05T11:03:03;18.73;;;9.80;;
46365;SDS011;32073;49.166;8.076;2022-12-05T11:07:05;14.82;;;8.75;;
46365;SDS011;32073;49.166;8.076;2022-12-05T11:11:27;15.75;;;8.40;;
46365;SDS011;32073;49.166;8.076;2022-12-05T11:15:29;16.88;;;8.38;;
46365;SDS011;32073;49.166;8.076;2022-12-05T11:19:35;15.50;;;8.43;;
46365;SDS011;32073;49.166;8.076;2022-12-05T11:23:37;11.80;;;6.60;;
46365;SDS011;32073;49.166;8.076;2022-12-05T11:27:38;7.38;;;4.60;;
46365;SDS011;32073;49.166;8.076;2022-12-05T11:31:39;7.10;;;3.83;;
46365;SDS011;32073;49.166;8.076;2022-12-05T11:35:54;4.65;;;3.00;;
46365;SDS011;32073;49.166;8.076;2022-12-05T11:40:00;5.68;;;3.00;;
46365;SDS011;32073;49.166;8.076;2022-12-05T11:53:26;6.28;;;2.80;;
46365;SDS011;32073;49.166;8.076;2022-12-05T12:10:37;5.03;;;3.17;;
46365;SDS011;32073;49.166;8.076;2022-12-05T12:15:28;4.68;;;3.22;;
46365;SDS011;32073;49.166;8.076;2022-12-05T12:33:03;4.05;;;2.50;;
46365;SDS011;32073;49.166;8.076;2022-12-05T12:58:45;4.97;;;2.40;;
46365;SDS011;32073;49.166;8.076;2022-12-05T13:02:53;2.65;;;1.85;;
46365;SDS011;32073;49.166;8.076;2022-12-05T13:07:17;3.45;;;1.65;;
46365;SDS011;32073;49.166;8.076;2022-12-05T13:11:26;3.35;;;2.15;;
46365;SDS011;32073;49.166;8.076;2022-12-05T13:19:41;3.38;;;2.25;;
46365;SDS011;32073;49.166;8.076;2022-12-05T13:23:49;2.00;;;1.55;;
46365;SDS011;32073;49.166;8.076;2022-12-05T13:27:58;3.38;;;3.08;;
46365;SDS011;32073;49.166;8.076;2022-12-05T13:32:03;4.72;;;2.33;;
46365;SDS011;32073;49.166;8.076;2022-12-05T13:36:05;1.65;;;1.20;;
46365;SDS011;32073;49.166;8.076;2022-12-05T13:40:30;1.50;;;1.10;;
46365;SDS011;32073;49.166;8.076;2022-12-05T13:49:02;1.73;;;1.00;;
46365;SDS011;32073;49.166;8.076;2022-12-05T14:01:41;1.17;;;0.95;;
46365;SDS011;32073;49.166;8.076;2022-12-05T14:05:49;2.10;;;0.90;;
46365;SDS011;32073;49.166;8.076;2022-12-05T14:09:53;1.67;;;0.55;;
46365;SDS011;32073;49.166;8.076;2022-12-05T14:13:55;1.00;;;0.70;;
46365;SDS011;32073;49.166;8.076;2022-12-05T14:36:14;2.00;;;1.70;;
46365;SDS011;32073;49.166;8.076;2022-12-05T14:40:38;1.17;;;1.02;;
46365;SDS011;32073;49.166;8.076;2022-12-05T14:44:45;1.52;;;1.08;;
46365;SDS011;32073;49.166;8.076;2022-12-05T14:48:50;2.70;;;2.10;;
46365;SDS011;32073;49.166;8.076;2022-12-05T14:57:14;1.55;;;1.10;;
46365;SDS011;32073;49.166;8.076;2022-12-05T15:05:30;1.15;;;0.80;;
46365;SDS011;32073;49.166;8.076;2022-12-05T15:22:34;0.40;;;0.40;;
46365;SDS011;32073;49.166;8.076;2022-12-05T15:26:38;0.43;;;0.40;;
46365;SDS011;32073;49.166;8.076;2022-12-05T15:30:54;0.75;;;0.40;;
46365;SDS011;32073;49.166;8.076;2022-12-05T15:35:04;1.05;;;0.50;;
46365;SDS011;32073;49.166;8.076;2022-12-05T15:43:57;0.90;;;0.50;;
46365;SDS011;32073;49.166;8.076;2022-12-05T15:52:06;0.77;;;0.60;;
46365;SDS011;32073;49.166;8.076;2022-12-05T15:56:29;1.63;;;1.48;;
46365;SDS011;32073;49.166;8.076;2022-12-05T16:00:40;0.65;;;0.60;;
46365;SDS011;32073;49.166;8.076;2022-12-05T16:04:54;0.80;;;0.70;;
46365;SDS011;32073;49.166;8.076;2022-12-05T16:08:59;0.85;;;0.60;;
46365;SDS011;32073;49.166;8.076;2022-12-05T16:13:14;2.05;;;0.80;;
46365;SDS011;32073;49.166;8.076;2022-12-05T16:17:16;11.52;;;2.97;;
46365;SDS011;32073;49.166;8.076;2022-12-05T16:21:29;3.08;;;1.10;;
46365;SDS011;32073;49.166;8.076;2022-12-05T16:25:36;53.13;;;28.58;;
46365;SDS011;32073;49.166;8.076;2022-12-05T16:29:37;25.90;;;14.00;;
46365;SDS011;32073;49.166;8.076;2022-12-05T16:33:38;14.43;;;7.97;;
46365;SDS011;32073;49.166;8.076;2022-12-05T16:37:39;6.72;;;3.83;;
46365;SDS011;32073;49.166;8.076;2022-12-05T16:41:39;11.93;;;5.80;;
46365;SDS011;32073;49.166;8.076;2022-12-05T16:45:44;11.88;;;6.60;;
46365;SDS011;32073;49.166;8.076;2022-12-05T16:49:47;45.08;;;25.27;;
46365;SDS011;32073;49.166;8.076;2022-12-05T16:53:48;138.38;;;77.70;;
46365;SDS011;32073;49.166;8.076;2022-12-05T16:57:50;28.98;;;19.63;;
46365;SDS011;32073;49.166;8.076;2022-12-05T17:01:51;27.35;;;13.95;;
46365;SDS011;32073;49.166;8.076;2022-12-05T17:05:52;12.32;;;6.15;;
46365;SDS011;32073;49.166;8.076;2022-12-05T17:09:52;13.98;;;7.22;;
46365;SDS011;32073;49.166;8.076;2022-12-05T17:13:53;9.00;;;4.68;;
46365;SDS011;32073;49.166;8.076;2022-12-05T17:17:56;14.32;;;7.35;;
46365;SDS011;32073;49.166;8.076;2022-12-05T17:21:58;13.82;;;6.38;;
46365;SDS011;32073;49.166;8.076;2022-12-05T17:25:59;38.38;;;14.73;;
46365;SDS011;32073;49.166;8.076;2022-12-05T17:30:00;13.88;;;7.80;;
46365;SDS011;32073;49.166;8.076;2022-12-05T17:34:01;6.35;;;3.78;;
46365;SDS011;32073;49.166;8.076;2022-12-05T17:38:02;3.40;;;1.75;;
46365;SDS011;32073;49.166;8.076;2022-12-05T17:42:03;2.28;;;1.50;;
46365;SDS011;32073;49.166;8.076;2022-12-05T17:46:04;1.75;;;1.10;;
46365;SDS011;32073;49.166;8.076;2022-12-05T17:50:10;1.10;;;0.82;;
46365;SDS011;32073;49.166;8.076;2022-12-05T17:54:16;3.80;;;1.70;;
46365;SDS011;32073;49.166;8.076;2022-12-05T17:58:17;7.25;;;2.70;;
46365;SDS011;32073;49.166;8.076;2022-12-05T18:02:18;10.23;;;3.92;;
46365;SDS011;32073;49.166;8.076;2022-12-05T18:06:19;4.47;;;2.00;;
46365;SDS011;32073;49.166;8.076;2022-12-05T18:10:20;2.38;;;1.17;;
46365;SDS011;32073;49.166;8.076;2022-12-05T18:14:22;0.90;;;0.68;;
46365;SDS011;32073;49.166;8.076;2022-12-05T18:18:24;1.77;;;0.93;;
46365;SDS011;32073;49.166;8.076;2022-12-05T18:22:26;6.50;;;2.53;;
46365;SDS011;32073;49.166;8.076;2022-12-05T18:26:27;2.88;;;1.77;;
46365;SDS011;32073;49.166;8.076;2022-12-05T18:30:28;2.40;;;1.48;;
46365;SDS011;32073;49.166;8.076;2022-12-05T18:34:28;3.13;;;1.98;;
46365;SDS011;32073;49.166;8.076;2022-12-05T18:38:29;1.75;;;1.65;;
46365;SDS011;32073;49.166;8.076;2022-12-05T18:42:30;1.85;;;1.55;;
46365;SDS011;32073;49.166;8.076;2022-12-05T18:46:30;1.15;;;1.00;;
46365;SDS011;32073;49.166;8.076;2022-12-05T18:50:31;2.25;;;1.80;;
46365;SDS011;32073;49.166;8.076;2022-12-05T18:54:32;0.80;;;0.80;;
46365;SDS011;32073;49.166;8.076;2022-12-05T18:58:33;1.63;;;1.10;;
46365;SDS011;32073;49.166;8.076;2022-12-05T19:02:34;1.58;;;1.17;;
46365;SDS011;32073;49.166;8.076;2022-12-05T19:06:35;2.60;;;1.00;;
46365;SDS011;32073;49.166;8.076;2022-12-05T19:10:36;1.67;;;1.17;;
46365;SDS011;32073;49.166;8.076;2022-12-05T19:14:36;1.65;;;1.42;;
46365;SDS011;32073;49.166;8.076;2022-12-05T19:18:37;1.23;;;1.05;;
46365;SDS011;32073;49.166;8.076;2022-12-05T19:22:38;1.33;;;1.00;;
46365;SDS011;32073;49.166;8.076;2022-12-05T19:26:40;5.53;;;2.53;;
46365;SDS011;32073;49.166;8.076;2022-12-05T19:30:41;1.95;;;1.23;;
46365;SDS011;32073;49.166;8.076;2022-12-05T19:34:42;1.65;;;1.13;;
46365;SDS011;32073;49.166;8.076;2022-12-05T19:38:45;1.60;;;1.20;;
46365;SDS011;32073;49.166;8.076;2022-12-05T19:42:48;2.08;;;1.42;;
46365;SDS011;32073;49.166;8.076;2022-12-05T19:46:49;1.30;;;1.00;;
46365;SDS011;32073;49.166;8.076;2022-12-05T19:50:53;1.38;;;0.80;;
46365;SDS011;32073;49.166;8.076;2022-12-05T19:54:54;1.33;;;1.00;;
46365;SDS011;32073;49.166;8.076;2022-12-05T19:58:56;1.65;;;1.10;;
46365;SDS011;32073;49.166;8.076;2022-12-05T20:02:57;1.70;;;0.80;;
46365;SDS011;32073;49.166;8.076;2022-12-05T20:06:58;1.88;;;1.08;;
46365;SDS011;32073;49.166;8.076;2022-12-05T20:11:03;4.43;;;1.90;;
46365;SDS011;32073;49.166;8.076;2022-12-05T20:15:06;5.22;;;1.98;;
46365;SDS011;32073;49.166;8.076;2022-12-05T20:19:09;5.00;;;2.42;;
46365;SDS011;32073;49.166;8.076;2022-12-05T20:23:10;4.03;;;1.85;;
46365;SDS011;32073;49.166;8.076;2022-12-05T20:27:12;3.15;;;2.50;;
46365;SDS011;32073;49.166;8.076;2022-12-05T20:31:22;2.63;;;1.80;;
46365;SDS011;32073;49.166;8.076;2022-12-05T20:35:28;2.28;;;1.63;;
46365;SDS011;32073;49.166;8.076;2022-12-05T20:39:29;7.22;;;5.22;;
46365;SDS011;32073;49.166;8.076;2022-12-05T20:43:30;25.65;;;15.73;;
46365;SDS011;32073;49.166;8.076;2022-12-05T20:47:31;6.22;;;4.15;;
46365;SDS011;32073;49.166;8.076;2022-12-05T20:51:32;3.20;;;2.03;;
46365;SDS011;32073;49.166;8.076;2022-12-05T20:55:33;2.80;;;2.13;;
46365;SDS011;32073;49.166;8.076;2022-12-05T20:59:34;5.25;;;3.55;;
46365;SDS011;32073;49.166;8.076;2022-12-05T21:03:35;6.80;;;4.35;;
46365;SDS011;32073;49.166;8.076;2022-12-05T21:07:39;16.95;;;7.13;;
46365;SDS011;32073;49.166;8.076;2022-12-05T21:11:40;7.07;;;3.92;;
46365;SDS011;32073;49.166;8.076;2022-12-05T21:15:41;3.92;;;2.80;;
46365;SDS011;32073;49.166;8.076;2022-12-05T21:19:42;2.65;;;1.75;;
46365;SDS011;32073;49.166;8.076;2022-12-05T21:23:45;1.95;;;1.40;;
46365;SDS011;32073;49.166;8.076;2022-12-05T21:27:46;1.67;;;1.20;;
46365;SDS011;32073;49.166;8.076;2022-12-05T21:31:48;2.40;;;1.33;;
46365;SDS011;32073;49.166;8.076;2022-12-05T21:35:53;2.92;;;1.30;;
46365;SDS011;32073;49.166;8.076;2022-12-05T21:39:54;1.25;;;1.15;;
46365;SDS011;32073;49.166;8.076;2022-12-05T21:43:54;3.38;;;1.35;;
46365;SDS011;32073;49.166;8.076;2022-12-05T21:47:55;2.30;;;1.73;;
46365;SDS011;32073;49.166;8.076;2022-12-05T21:51:56;2.97;;;1.80;;
46365;SDS011;32073;49.166;8.076;2022-12-05T21:55:57;3.13;;;1.95;;
46365;SDS011;32073;49.166;8.076;2022-12-05T22:00:06;3.00;;;2.00;;
46365;SDS011;32073;49.166;8.076;2022-12-05T22:04:08;3.47;;;2.03;;
46365;SDS011;32073;49.166;8.076;2022-12-05T22:08:09;4.45;;;2.55;;
46365;SDS011;32073;49.166;8.076;2022-12-05T22:12:10;11.63;;;5.95;;
46365;SDS011;32073;49.166;8.076;2022-12-05T22:16:11;3.78;;;2.55;;
46365;SDS011;32073;49.166;8.076;2022-12-05T22:20:12;5.72;;;2.60;;
46365;SDS011;32073;49.166;8.076;2022-12-05T22:24:13;3.67;;;2.58;;
46365;SDS011;32073;49.166;8.076;2022-12-05T22:28:14;3.33;;;2.25;;
46365;SDS011;32073;49.166;8.076;2022-12-05T22:32:14;4.28;;;2.33;;
46365;SDS011;32073;49.166;8.076;2022-12-05T22:36:16;4.80;;;2.40;;
46365;SDS011;32073;49.166;8.076;2022-12-05T22:40:18;4.78;;;3.00;;
46365;SDS011;32073;49.166;8.076;2022-12-05T22:44:19;9.98;;;7.32;;
46365;SDS011;32073;49.166;8.076;2022-12-05T22:48:20;4.15;;;3.00;;
46365;SDS011;32073;49.166;8.076;2022-12-05T22:52:21;11.73;;;8.57;;
46365;SDS011;32073;49.166;8.076;2022-12-05T22:56:23;6.47;;;4.35;;
46365;SDS011;32073;49.166;8.076;2022-12-05T23:00:26;3.75;;;3.03;;
46365;SDS011;32073;49.166;8.076;2022-12-05T23:04:27;6.85;;;5.18;;
46365;SDS011;32073;49.166;8.076;2022-12-05T23:08:27;3.97;;;3.10;;
46365;SDS011;32073;49.166;8.076;2022-12-05T23:12:28;3.85;;;2.17;;
46365;SDS011;32073;49.166;8.076;2022-12-05T23:16:29;2.58;;;2.00;;
46365;SDS011;32073;49.166;8.076;2022-12-05T23:20:32;2.78;;;2.20;;
46365;SDS011;32073;49.166;8.076;2022-12-05T23:24:32;2.80;;;2.10;;
46365;SDS011;32073;49.166;8.076;2022-12-05T23:28:33;3.00;;;1.90;;
46365;SDS011;32073;49.166;8.076;2022-12-05T23:32:34;3.20;;;2.30;;
46365;SDS011;32073;49.166;8.076;2022-12-05T23:36:34;3.25;;;2.50;;
46365;SDS011;32073;49.166;8.076;2022-12-05T23:40:35;4.05;;;2.65;;
46365;SDS011;32073;49.166;8.076;2022-12-05T23:44:36;4.03;;;2.35;;
46365;SDS011;32073;49.166;8.076;2022-12-05T23:48:37;3.83;;;2.65;;
46365;SDS011;32073;49.166;8.076;2022-12-05T23:52:38;5.43;;;2.42;;
46365;SDS011;32073;49.166;8.076;2022-12-05T23:56:39;3.25;;;2.20;;
